createdAt,value
2022-08-02T00:00:10.858Z,4.85
2022-08-02T00:02:37.845Z,4.45
2022-08-02T00:05:05.674Z,4.53
2022-08-02T00:07:35.288Z,4.72
2022-08-02T00:10:07.587Z,4.78
2022-08-02T00:12:34.379Z,5.18
2022-08-02T00:15:01.183Z,4.85
2022-08-02T00:17:27.984Z,4.93
2022-08-02T00:19:54.753Z,5.05
2022-08-02T00:22:21.546Z,5.10
2022-08-02T00:24:48.416Z,5.82
2022-08-02T00:27:15.174Z,5.93
2022-08-02T00:29:44.439Z,5.25
2022-08-02T00:32:19.521Z,5.45
2022-08-02T00:34:46.453Z,5.55
2022-08-02T00:37:13.731Z,5.65
2022-08-02T00:39:40.760Z,5.60
2022-08-02T00:42:08.009Z,5.80
2022-08-02T00:44:35.184Z,6.00
2022-08-02T00:47:02.155Z,6.78
2022-08-02T00:49:29.041Z,6.20
2022-08-02T00:51:55.936Z,6.68
2022-08-02T00:54:23.284Z,7.20
2022-08-02T00:56:51.231Z,6.70
2022-08-02T00:59:18.703Z,6.53
2022-08-02T01:01:55.825Z,6.53
2022-08-02T01:04:29.933Z,5.90
2022-08-02T01:07:13.600Z,6.72
2022-08-02T01:09:45.243Z,7.05
2022-08-02T01:12:13.566Z,6.50
2022-08-02T01:14:47.164Z,6.20
2022-08-02T01:17:25.384Z,6.20
2022-08-02T01:20:05.835Z,6.55
2022-08-02T01:23:02.534Z,7.70
2022-08-02T01:25:46.795Z,5.75
2022-08-02T01:28:38.010Z,6.40
2022-08-02T01:31:32.629Z,6.78
2022-08-02T01:34:08.731Z,6.30
2022-08-02T01:36:40.194Z,6.30
2022-08-02T01:39:11.510Z,6.88
2022-08-02T01:41:58.798Z,6.85
2022-08-02T01:44:28.819Z,7.00
2022-08-02T01:46:59.986Z,6.57
2022-08-02T01:49:30.987Z,7.03
2022-08-02T01:52:18.930Z,6.68
2022-08-02T01:54:47.610Z,7.00
2022-08-02T01:57:16.361Z,7.50
2022-08-02T01:59:45.170Z,6.78
2022-08-02T02:02:14.531Z,6.95
2022-08-02T02:04:42.407Z,7.47
2022-08-02T02:07:10.204Z,7.72
2022-08-02T02:09:50.113Z,6.90
2022-08-02T02:12:19.749Z,8.20
2022-08-02T02:14:51.589Z,7.65
2022-08-02T02:17:50.638Z,7.72
2022-08-02T02:20:13.747Z,7.28
2022-08-02T02:22:41.014Z,7.40
2022-08-02T02:25:12.833Z,7.45
2022-08-02T02:28:09.101Z,8.32
2022-08-02T02:30:39.920Z,7.40
2022-08-02T02:33:08.414Z,7.82
2022-08-02T02:35:37.388Z,7.10
2022-08-02T02:38:09.673Z,7.30
2022-08-02T02:40:37.883Z,7.38
2022-08-02T02:43:06.389Z,8.40
2022-08-02T02:45:34.553Z,7.35
2022-08-02T02:48:02.440Z,7.03
2022-08-02T02:50:30.381Z,7.75
2022-08-02T02:52:58.137Z,8.07
2022-08-02T02:55:26.987Z,8.30
2022-08-02T02:57:54.465Z,7.45
2022-08-02T03:00:42.065Z,7.32
2022-08-02T03:03:10.081Z,7.82
2022-08-02T03:05:37.437Z,7.50
2022-08-02T03:08:04.628Z,6.95
2022-08-02T03:10:31.762Z,7.65
2022-08-02T03:12:58.692Z,7.82
2022-08-02T03:15:29.008Z,7.28
2022-08-02T03:17:56.002Z,6.90
2022-08-02T03:20:22.935Z,7.10
2022-08-02T03:22:50.521Z,7.45
2022-08-02T03:25:18.742Z,7.15
2022-08-02T03:27:46.362Z,7.35
2022-08-02T03:30:14.750Z,7.20
2022-08-02T03:32:44.845Z,7.07
2022-08-02T03:35:14.095Z,6.85
2022-08-02T03:37:41.545Z,7.22
2022-08-02T03:40:10.930Z,6.50
2022-08-02T03:42:40.143Z,6.90
2022-08-02T03:45:09.944Z,6.93
2022-08-02T03:47:39.461Z,6.65
2022-08-02T03:50:11.179Z,7.13
2022-08-02T03:52:40.545Z,6.75
2022-08-02T03:55:08.408Z,6.28
2022-08-02T03:57:39.123Z,6.60
2022-08-02T04:00:07.918Z,6.53
2022-08-02T04:02:36.192Z,6.45
2022-08-02T04:05:03.770Z,6.32
2022-08-02T04:08:15.371Z,7.10
2022-08-02T04:10:18.265Z,6.90
2022-08-02T04:12:45.598Z,6.43
2022-08-02T04:15:14.902Z,6.70
2022-08-02T04:17:53.117Z,6.65
2022-08-02T04:20:23.681Z,6.97
2022-08-02T04:23:01.578Z,7.00
2022-08-02T04:25:35.439Z,6.85
2022-08-02T04:28:15.420Z,6.53
2022-08-02T04:30:45.689Z,6.82
2022-08-02T04:33:13.091Z,7.32
2022-08-02T04:35:40.071Z,7.10
2022-08-02T04:38:10.223Z,6.53
2022-08-02T04:40:37.838Z,6.53
2022-08-02T04:43:04.765Z,7.18
2022-08-02T04:45:31.810Z,7.28
2022-08-02T04:48:06.524Z,7.20
2022-08-02T04:50:34.185Z,7.57
2022-08-02T04:53:01.346Z,6.65
2022-08-02T04:55:31.094Z,7.85
2022-08-02T04:57:58.990Z,5.95
2022-08-02T05:00:28.032Z,5.28
2022-08-02T05:02:57.329Z,4.80
2022-08-02T05:05:24.316Z,4.00
2022-08-02T05:07:51.135Z,4.45
2022-08-02T05:10:18.097Z,4.30
2022-08-02T05:12:45.018Z,4.43
2022-08-02T05:15:13.253Z,4.72
2022-08-02T05:17:48.157Z,4.72
2022-08-02T05:20:20.195Z,4.88
2022-08-02T05:22:48.359Z,4.47
2022-08-02T05:25:15.300Z,4.70
2022-08-02T05:27:42.579Z,3.97
2022-08-02T05:30:10.504Z,4.03
2022-08-02T05:32:48.722Z,4.25
2022-08-02T05:35:19.889Z,4.88
2022-08-02T05:37:48.138Z,4.57
2022-08-02T05:40:15.706Z,4.13
2022-08-02T05:42:43.358Z,4.15
2022-08-02T05:45:11.097Z,4.57
2022-08-02T05:47:38.527Z,4.32
2022-08-02T05:50:07.974Z,4.85
2022-08-02T05:53:05.104Z,4.53
2022-08-02T05:55:40.376Z,4.47
2022-08-02T05:58:16.039Z,4.60
2022-08-02T06:00:45.254Z,4.88
2022-08-02T06:03:24.945Z,4.30
2022-08-02T06:06:00.464Z,4.43
2022-08-02T06:11:06.517Z,5.25
2022-08-02T06:13:34.777Z,5.22
2022-08-02T06:16:02.770Z,5.07
2022-08-02T06:18:31.140Z,5.18
2022-08-02T06:22:29.830Z,5.70
2022-08-02T06:23:58.556Z,5.53
2022-08-02T06:26:27.328Z,5.43
2022-08-02T06:28:55.903Z,5.65
2022-08-02T06:31:23.332Z,5.20
2022-08-02T06:33:50.179Z,5.40
2022-08-02T06:36:27.580Z,5.35
2022-08-02T06:39:12.724Z,7.90
2022-08-02T06:41:42.408Z,5.70
2022-08-02T06:44:44.700Z,6.35
2022-08-02T06:47:11.743Z,5.93
2022-08-02T06:49:52.631Z,5.72
2022-08-02T06:52:27.670Z,5.47
2022-08-02T06:54:56.932Z,5.72
2022-08-02T06:57:23.823Z,5.13
2022-08-02T06:59:50.617Z,5.47
2022-08-02T07:02:17.434Z,4.63
2022-08-02T07:04:44.593Z,4.65
2022-08-02T07:07:11.375Z,4.53
2022-08-02T07:09:38.162Z,4.72
2022-08-02T07:12:05.435Z,4.45
2022-08-02T07:14:32.381Z,4.80
2022-08-02T07:17:03.319Z,4.75
2022-08-02T07:19:37.339Z,4.07
2022-08-02T07:22:05.420Z,4.72
2022-08-02T07:24:32.467Z,4.75
2022-08-02T07:27:15.418Z,4.18
2022-08-02T07:29:46.262Z,4.55
2022-08-02T07:32:21.535Z,4.20
2022-08-02T07:34:51.184Z,4.60
2022-08-02T07:37:53.759Z,4.03
2022-08-02T07:40:20.020Z,4.72
2022-08-02T07:42:49.498Z,5.85
2022-08-02T07:45:16.836Z,5.28
2022-08-02T07:47:45.035Z,7.95
2022-08-02T07:50:13.007Z,4.85
2022-08-02T07:52:41.691Z,5.10
2022-08-02T07:55:10.299Z,4.53
2022-08-02T07:57:41.259Z,5.20
2022-08-02T08:00:11.902Z,5.20
2022-08-02T08:02:39.457Z,5.07
2022-08-02T08:05:07.342Z,5.13
2022-08-02T08:07:34.998Z,5.45
2022-08-02T08:10:02.138Z,5.15
2022-08-02T08:12:29.064Z,5.45
2022-08-02T08:14:56.038Z,5.72
2022-08-02T08:17:23.253Z,5.95
2022-08-02T08:19:52.513Z,6.10
2022-08-02T08:22:20.706Z,5.55
2022-08-02T08:24:48.350Z,6.00
2022-08-02T08:27:16.061Z,6.85
2022-08-02T08:29:43.611Z,6.35
2022-08-02T08:32:16.137Z,6.85
2022-08-02T08:34:49.036Z,6.75
2022-08-02T08:37:16.813Z,6.55
2022-08-02T08:39:58.302Z,6.82
2022-08-02T08:42:30.640Z,7.07
2022-08-02T08:44:59.032Z,7.20
2022-08-02T08:47:38.023Z,7.20
2022-08-02T08:50:24.578Z,6.82
2022-08-02T08:53:01.900Z,8.23
2022-08-02T08:55:30.181Z,7.03
2022-08-02T08:57:59.510Z,6.97
2022-08-02T09:00:27.304Z,6.82
2022-08-02T09:02:54.220Z,6.97
2022-08-02T09:05:21.019Z,6.55
2022-08-02T09:07:50.273Z,6.32
2022-08-02T09:10:36.099Z,5.93
2022-08-02T09:15:59.951Z,6.75
2022-08-02T09:18:47.599Z,6.75
2022-08-02T09:21:17.712Z,6.95
2022-08-02T09:23:46.011Z,6.10
2022-08-02T09:26:15.448Z,6.10
2022-08-02T09:28:44.870Z,5.93
2022-08-02T09:31:18.480Z,5.60
2022-08-02T09:34:00.653Z,6.55
2022-08-02T09:36:37.036Z,13.73
2022-08-02T09:39:06.548Z,18.13
2022-08-02T09:41:36.153Z,10.77
2022-08-02T09:44:06.931Z,6.93
2022-08-02T09:46:40.161Z,6.40
2022-08-02T09:49:17.154Z,6.30
2022-08-02T09:51:47.290Z,5.68
2022-08-02T09:54:19.708Z,6.20
2022-08-02T09:56:46.705Z,6.35
2022-08-02T09:59:15.184Z,5.72
2022-08-02T10:01:51.701Z,5.90
2022-08-02T10:04:34.074Z,6.05
2022-08-02T10:07:08.039Z,5.72
2022-08-02T10:09:35.028Z,6.38
2022-08-02T10:12:03.564Z,6.53
2022-08-02T10:14:35.606Z,6.30
2022-08-02T10:17:05.012Z,6.72
2022-08-02T10:19:59.682Z,5.90
2022-08-02T10:22:20.236Z,5.70
2022-08-02T10:24:48.655Z,5.68
2022-08-02T10:27:21.126Z,5.57
2022-08-02T10:29:54.816Z,5.40
2022-08-02T10:32:42.979Z,6.03
2022-08-02T10:35:19.934Z,4.95
2022-08-02T10:37:58.194Z,5.13
2022-08-02T10:40:26.896Z,5.72
2022-08-02T10:43:01.703Z,5.43
2022-08-02T10:45:28.828Z,5.37
2022-08-02T10:48:12.527Z,6.15
2022-08-02T10:50:48.404Z,5.38
2022-08-02T10:53:29.371Z,6.03
2022-08-02T10:55:58.703Z,5.63
2022-08-02T10:58:32.231Z,5.93
2022-08-02T11:01:04.746Z,5.18
2022-08-02T11:03:32.909Z,4.97
2022-08-02T11:06:24.735Z,5.00
2022-08-02T11:09:33.433Z,5.03
2022-08-02T11:12:07.838Z,5.38
2022-08-02T11:14:36.886Z,7.72
2022-08-02T11:17:05.441Z,5.10
2022-08-02T11:19:32.771Z,5.13
2022-08-02T11:22:23.707Z,5.45
2022-08-02T11:24:52.387Z,5.18
2022-08-02T11:27:22.463Z,5.45
2022-08-02T11:29:49.969Z,5.20
2022-08-02T11:32:22.527Z,5.22
2022-08-02T11:34:58.977Z,4.70
2022-08-02T11:37:32.653Z,4.95
2022-08-02T11:39:59.434Z,4.40
2022-08-02T11:42:37.584Z,4.90
2022-08-02T11:45:07.340Z,3.97
2022-08-02T11:47:34.654Z,4.20
2022-08-02T11:50:06.517Z,4.50
2022-08-02T11:52:34.891Z,4.00
2022-08-02T11:55:01.892Z,3.85
2022-08-02T11:57:28.711Z,4.18
2022-08-02T12:00:17.682Z,3.78
2022-08-02T12:02:48.646Z,3.67
2022-08-02T12:05:22.759Z,4.45
2022-08-02T12:07:57.504Z,3.90
2022-08-02T12:10:25.367Z,3.58
2022-08-02T12:13:00.944Z,4.50
2022-08-02T12:15:44.827Z,4.60
2022-08-02T12:18:35.986Z,4.18
2022-08-02T12:21:04.141Z,4.20
2022-08-02T12:23:31.010Z,4.75
2022-08-02T12:26:09.587Z,4.63
2022-08-02T12:28:43.666Z,5.40
2022-08-02T12:31:14.268Z,4.93
2022-08-02T12:33:54.680Z,5.70
2022-08-02T12:36:30.703Z,5.68
2022-08-02T12:39:00.091Z,5.57
2022-08-02T12:41:31.048Z,6.07
2022-08-02T12:43:59.516Z,6.10
2022-08-02T12:46:26.517Z,10.00
2022-08-02T12:49:16.822Z,11.93
2022-08-02T12:51:56.372Z,7.25
2022-08-02T12:54:38.526Z,6.03
2022-08-02T12:57:12.587Z,5.75
2022-08-02T12:59:41.315Z,4.90
2022-08-02T13:02:11.862Z,6.38
2022-08-02T13:04:39.155Z,5.13
2022-08-02T13:07:06.590Z,5.30
2022-08-02T13:09:41.346Z,5.68
2022-08-02T13:12:08.877Z,4.85
2022-08-02T13:14:40.420Z,5.63
2022-08-02T13:17:12.595Z,5.32
2022-08-02T13:19:40.814Z,5.20
2022-08-02T13:22:08.392Z,4.90
2022-08-02T13:24:56.244Z,4.47
2022-08-02T13:27:25.121Z,4.60
2022-08-02T13:29:53.642Z,4.68
2022-08-02T13:32:21.215Z,4.20
2022-08-02T13:34:48.023Z,4.95
2022-08-02T13:37:14.924Z,4.72
2022-08-02T13:39:41.762Z,4.40
2022-08-02T13:42:08.657Z,4.40
2022-08-02T13:44:44.233Z,4.05
2022-08-02T13:47:11.528Z,4.65
2022-08-02T13:49:50.878Z,4.60
2022-08-02T13:52:19.131Z,4.60
2022-08-02T13:54:45.914Z,4.18
2022-08-02T13:57:12.929Z,3.67
2022-08-02T13:59:57.506Z,4.25
2022-08-02T14:02:28.739Z,4.50
2022-08-02T14:04:56.034Z,4.05
2022-08-02T14:07:22.941Z,4.32
2022-08-02T14:09:49.702Z,3.92
2022-08-02T14:12:17.011Z,4.07
2022-08-02T14:14:44.048Z,3.90
2022-08-02T14:17:11.626Z,4.07
2022-08-02T14:19:38.514Z,4.10
2022-08-02T14:22:11.260Z,4.22
2022-08-02T14:24:40.228Z,3.45
2022-08-02T14:27:07.522Z,4.10
2022-08-02T14:29:34.427Z,4.68
2022-08-02T14:32:01.435Z,3.67
2022-08-02T14:34:28.472Z,4.13
2022-08-02T14:36:58.203Z,3.90
2022-08-02T14:39:25.005Z,3.85
2022-08-02T14:41:59.880Z,4.15
2022-08-02T14:44:28.262Z,3.90
2022-08-02T14:46:55.233Z,3.90
2022-08-02T14:49:24.813Z,3.88
2022-08-02T14:51:56.427Z,3.80
2022-08-02T14:54:27.798Z,3.95
2022-08-02T14:56:58.363Z,3.83
2022-08-02T14:59:25.227Z,3.92
2022-08-02T15:01:52.279Z,3.97
2022-08-02T15:04:19.201Z,3.80
2022-08-02T15:06:46.012Z,4.00
2022-08-02T15:09:13.652Z,5.00
2022-08-02T15:11:47.753Z,4.20
2022-08-02T15:14:18.475Z,4.65
2022-08-02T15:16:58.886Z,4.10
2022-08-02T15:19:56.997Z,4.22
2022-08-02T15:22:16.700Z,4.38
2022-08-02T15:24:46.463Z,4.53
2022-08-02T15:27:14.760Z,4.40
2022-08-02T15:29:43.009Z,4.90
2022-08-02T15:32:10.365Z,4.75
2022-08-02T15:34:37.877Z,4.80
2022-08-02T15:37:04.878Z,4.53
2022-08-02T15:39:31.793Z,4.70
2022-08-02T15:41:58.605Z,4.93
2022-08-02T15:44:25.410Z,4.80
2022-08-02T15:46:53.625Z,5.32
2022-08-02T15:49:23.642Z,4.88
2022-08-02T15:51:52.202Z,5.00
2022-08-02T15:54:19.666Z,5.65
2022-08-02T15:56:46.657Z,5.18
2022-08-02T15:59:13.671Z,4.78
2022-08-02T16:01:44.871Z,5.22
2022-08-02T16:04:14.856Z,5.03
2022-08-02T16:06:41.772Z,5.43
2022-08-02T16:09:08.837Z,5.43
2022-08-02T16:11:35.701Z,6.10
2022-08-02T16:14:02.640Z,5.35
2022-08-02T16:16:32.628Z,5.60
2022-08-02T16:19:46.098Z,6.13
2022-08-02T16:21:48.296Z,5.53
2022-08-02T16:24:15.205Z,5.82
2022-08-02T16:26:42.568Z,5.93
2022-08-02T16:29:10.150Z,5.97
2022-08-02T16:31:41.754Z,5.50
2022-08-02T16:34:09.353Z,6.18
2022-08-02T16:36:36.602Z,6.25
2022-08-02T16:39:04.405Z,6.40
2022-08-02T16:41:50.909Z,6.85
2022-08-02T16:44:18.106Z,6.72
2022-08-02T16:46:54.158Z,6.60
2022-08-02T16:50:06.023Z,5.93
2022-08-02T16:52:09.587Z,5.72
2022-08-02T16:54:37.356Z,6.15
2022-08-02T16:57:05.058Z,5.47
2022-08-02T16:59:42.813Z,6.03
2022-08-02T17:02:18.275Z,6.50
2022-08-02T17:04:47.375Z,6.32
2022-08-02T17:08:07.723Z,8.02
2022-08-02T17:10:06.646Z,6.40
2022-08-02T17:12:36.868Z,6.90
2022-08-02T17:16:08.148Z,7.88
2022-08-02T17:17:51.821Z,6.95
2022-08-02T17:20:19.157Z,7.90
2022-08-02T17:22:46.093Z,7.10
2022-08-02T17:25:14.738Z,7.50
2022-08-02T17:27:43.168Z,7.90
2022-08-02T17:30:11.355Z,6.47
2022-08-02T17:32:39.314Z,6.97
2022-08-02T17:35:09.924Z,7.38
2022-08-02T17:37:41.681Z,7.07
2022-08-02T17:40:09.807Z,8.10
2022-08-02T17:42:36.909Z,7.32
2022-08-02T17:45:16.770Z,7.35
2022-08-02T17:48:04.752Z,8.52
2022-08-02T17:50:35.743Z,7.03
2022-08-02T17:53:03.477Z,6.90
2022-08-02T17:55:31.581Z,7.30
2022-08-02T17:57:59.293Z,8.50
2022-08-02T18:00:34.418Z,8.70
2022-08-02T18:03:05.462Z,8.23
2022-08-02T18:05:39.951Z,8.27
2022-08-02T18:08:23.236Z,8.02
2022-08-02T18:10:52.460Z,8.65
2022-08-02T18:13:19.572Z,8.63
2022-08-02T18:15:46.681Z,7.78
2022-08-02T18:18:14.842Z,8.00
2022-08-02T18:20:42.066Z,8.25
2022-08-02T18:23:10.963Z,8.00
2022-08-02T18:25:45.674Z,8.20
2022-08-02T18:28:15.311Z,8.30
2022-08-02T18:30:43.242Z,8.70
2022-08-02T18:33:58.636Z,7.93
2022-08-02T18:35:57.134Z,7.75
2022-08-02T18:38:25.045Z,8.80
2022-08-02T18:40:53.835Z,8.05
2022-08-02T18:43:25.594Z,8.75
2022-08-02T18:46:05.309Z,8.25
2022-08-02T18:48:44.209Z,8.13
2022-08-02T18:51:14.713Z,7.90
2022-08-02T18:53:42.827Z,6.75
2022-08-02T18:56:19.246Z,8.05
2022-08-02T18:58:46.672Z,7.00
2022-08-02T19:01:14.888Z,8.45
2022-08-02T19:03:49.543Z,7.00
2022-08-02T19:09:11.426Z,7.75
2022-08-02T19:11:48.143Z,7.53
2022-08-02T19:14:24.087Z,7.75
2022-08-02T19:16:54.901Z,8.38
2022-08-02T19:19:22.278Z,8.85
2022-08-02T19:22:16.054Z,8.20
2022-08-02T19:24:37.514Z,9.05
2022-08-02T19:27:13.490Z,8.95
2022-08-02T19:29:42.842Z,9.27
2022-08-02T19:32:39.682Z,9.03
2022-08-02T19:35:19.208Z,9.18
2022-08-02T19:37:52.455Z,9.05
2022-08-02T19:40:24.269Z,8.38
2022-08-02T19:44:25.615Z,8.80
2022-08-02T19:45:50.790Z,9.02
2022-08-02T19:48:27.003Z,9.05
2022-08-02T19:51:00.483Z,7.68
2022-08-02T19:53:48.680Z,8.30
2022-08-02T19:56:21.095Z,8.77
2022-08-02T19:58:53.966Z,8.10
2022-08-02T20:01:28.282Z,7.55
2022-08-02T20:04:13.170Z,8.00
2022-08-02T20:06:45.495Z,7.75
2022-08-02T20:09:22.251Z,7.70
2022-08-02T20:11:54.407Z,7.15
2022-08-02T20:14:27.663Z,7.75
2022-08-02T20:16:57.244Z,7.45
2022-08-02T20:19:24.718Z,7.10
2022-08-02T20:21:56.892Z,7.75
2022-08-02T20:24:27.597Z,8.02
2022-08-02T20:26:55.423Z,8.18
2022-08-02T20:29:43.444Z,8.20
2022-08-02T20:32:17.148Z,7.72
2022-08-02T20:34:48.663Z,8.10
2022-08-02T20:38:00.929Z,7.75
2022-08-02T20:40:04.721Z,8.38
2022-08-02T20:42:31.853Z,8.00
2022-08-02T20:45:00.182Z,7.57
2022-08-02T20:50:33.198Z,7.60
2022-08-02T20:53:01.495Z,7.95
2022-08-02T20:55:31.224Z,7.35
2022-08-02T20:58:01.715Z,8.27
2022-08-02T21:00:30.329Z,7.75
2022-08-02T21:02:57.887Z,7.85
2022-08-02T21:05:26.850Z,7.43
2022-08-02T21:08:16.500Z,7.72
2022-08-02T21:10:51.836Z,7.65
2022-08-02T21:13:26.770Z,7.63
2022-08-02T21:15:55.391Z,7.15
2022-08-02T21:18:40.408Z,7.10
2022-08-02T21:21:09.328Z,8.05
2022-08-02T21:23:37.454Z,7.85
2022-08-02T21:26:06.634Z,7.47
2022-08-02T21:28:44.182Z,6.90
2022-08-02T21:31:14.924Z,7.50
2022-08-02T21:33:47.105Z,7.20
2022-08-02T21:36:31.579Z,7.80
2022-08-02T21:39:04.405Z,7.32
2022-08-02T21:41:38.586Z,7.15
2022-08-02T21:44:23.745Z,7.45
2022-08-02T21:46:53.793Z,7.53
2022-08-02T21:49:27.084Z,7.75
2022-08-02T21:52:07.613Z,7.35
2022-08-02T21:54:35.403Z,7.35
2022-08-02T21:57:07.561Z,7.82
2022-08-02T21:59:45.437Z,7.40
2022-08-02T22:02:13.408Z,7.25
2022-08-02T22:04:41.550Z,7.03
2022-08-02T22:07:17.059Z,6.93
2022-08-02T22:09:45.402Z,6.85
2022-08-02T22:12:17.578Z,6.90
2022-08-02T22:14:53.862Z,6.90
2022-08-02T22:20:09.281Z,7.57
2022-08-02T22:22:39.514Z,6.90
2022-08-02T22:25:10.292Z,7.22
2022-08-02T22:28:36.139Z,7.38
2022-08-02T22:30:40.695Z,7.30
2022-08-02T22:33:33.023Z,6.88
2022-08-02T22:36:00.736Z,7.07
2022-08-02T22:38:28.817Z,6.80
2022-08-02T22:40:55.811Z,6.65
2022-08-02T22:43:23.441Z,6.72
2022-08-02T22:45:50.883Z,6.55
2022-08-02T22:48:18.205Z,6.80
2022-08-02T22:50:44.993Z,6.53
2022-08-02T22:53:12.302Z,6.38
2022-08-02T22:55:41.834Z,6.80
2022-08-02T22:58:09.790Z,7.00
2022-08-02T22:58:46.794Z,7.38
2022-08-02T22:59:05.947Z,8.80
2022-08-02T23:00:36.554Z,6.65
2022-08-02T23:03:06.820Z,7.43
2022-08-02T23:05:34.294Z,6.47
2022-08-02T23:08:01.241Z,7.15
2022-08-02T23:10:28.628Z,7.13
2022-08-02T23:12:58.992Z,7.32
2022-08-02T23:15:26.943Z,6.93
2022-08-02T23:18:12.819Z,7.60
2022-08-02T23:20:40.866Z,7.20
2022-08-02T23:23:11.573Z,6.85
2022-08-02T23:25:38.895Z,7.10
2022-08-02T23:28:05.735Z,6.60
2022-08-02T23:30:32.509Z,7.30
2022-08-02T23:32:59.275Z,7.25
2022-08-02T23:35:26.079Z,6.55
2022-08-02T23:37:59.297Z,6.63
2022-08-02T23:40:40.388Z,7.57
2022-08-02T23:43:13.715Z,7.15
2022-08-02T23:45:43.982Z,6.90
2022-08-02T23:48:10.755Z,7.30
2022-08-02T23:50:37.582Z,6.75
2022-08-02T23:53:04.383Z,7.60
2022-08-02T23:55:31.156Z,6.97
2022-08-02T23:57:57.910Z,7.70
